N200JT KHLG-KJFK
Flight info
| Callsign | N200JT |
|---|---|
| Flight time | 0h 52m |
| Altitude | 41000 |
| Route | AVERE J152 JST LVZ |
| Aircraft | C750/M-SBDE3FGHRWXY/S |
Departure
| Time | 2026-05-08 20:04 |
|---|---|
| Airport | Wheeling Ohio County Airport (KHLG) |
Arrival
| Time | 2026-05-08 20:56 |
|---|---|
| Airport | John F. Kennedy International Airport (KJFK) |
| Time | Latitude | Longitude | Altitude | Speed | Heading |
|---|---|---|---|---|---|
| 2026-05-08 19:47 | 40.18126 | -80.64570 | 1184 ft | 0 kts | 354° |
| 2026-05-08 20:00 | 40.18128 | -80.64568 | 1184 ft | 1 kts | 18° |
| 2026-05-08 20:00 | 40.18128 | -80.64558 | 1184 ft | 2 kts | 103° |
| 2026-05-08 20:01 | 40.18113 | -80.64541 | 1184 ft | 4 kts | 138° |
| 2026-05-08 20:01 | 40.18102 | -80.64516 | 1184 ft | 3 kts | 98° |
| 2026-05-08 20:01 | 40.18104 | -80.64476 | 1169 ft | 7 kts | 85° |
| 2026-05-08 20:01 | 40.18105 | -80.64425 | 1185 ft | 5 kts | 89° |
| 2026-05-08 20:02 | 40.18102 | -80.64396 | 1185 ft | 2 kts | 99° |
| 2026-05-08 20:02 | 40.18083 | -80.64365 | 1185 ft | 6 kts | 136° |
| 2026-05-08 20:02 | 40.18058 | -80.64367 | 1185 ft | 0 kts | 209° |
| 2026-05-08 20:03 | 40.18049 | -80.64373 | 1184 ft | 10 kts | 209° |
| 2026-05-08 20:04 | 40.17643 | -80.64636 | 1173 ft | 120 kts | 206° |
| 2026-05-08 20:04 | 40.16785 | -80.65182 | 1593 ft | 138 kts | 207° |
| 2026-05-08 20:04 | 40.15872 | -80.65485 | 2466 ft | 144 kts | 179° |
| 2026-05-08 20:04 | 40.14933 | -80.64723 | 2993 ft | 181 kts | 129° |
| 2026-05-08 20:05 | 40.14550 | -80.63064 | 3751 ft | 202 kts | 100° |
| 2026-05-08 20:05 | 40.14352 | -80.61123 | 4337 ft | 229 kts | 101° |
| 2026-05-08 20:05 | 40.14066 | -80.58958 | 4927 ft | 255 kts | 102° |
| 2026-05-08 20:05 | 40.13747 | -80.56562 | 5484 ft | 281 kts | 102° |
| 2026-05-08 20:06 | 40.13413 | -80.53943 | 6185 ft | 298 kts | 102° |
| 2026-05-08 20:06 | 40.13089 | -80.51288 | 7253 ft | 302 kts | 101° |
| 2026-05-08 20:06 | 40.12748 | -80.48538 | 8254 ft | 311 kts | 101° |
| 2026-05-08 20:06 | 40.12399 | -80.45715 | 9298 ft | 319 kts | 101° |
| 2026-05-08 20:07 | 40.12107 | -80.42808 | 10113 ft | 330 kts | 92° |
| 2026-05-08 20:07 | 40.12600 | -80.39782 | 10297 ft | 357 kts | 63° |
| 2026-05-08 20:07 | 40.14048 | -80.37035 | 10361 ft | 378 kts | 45° |
| 2026-05-08 20:07 | 40.15845 | -80.34525 | 11190 ft | 377 kts | 41° |
| 2026-05-08 20:08 | 40.17595 | -80.31955 | 12023 ft | 382 kts | 45° |
| 2026-05-08 20:08 | 40.19197 | -80.29145 | 12789 ft | 387 kts | 49° |
| 2026-05-08 20:08 | 40.20779 | -80.26281 | 13546 ft | 390 kts | 47° |
| 2026-05-08 20:08 | 40.22468 | -80.23507 | 14290 ft | 390 kts | 44° |
| 2026-05-08 20:09 | 40.24201 | -80.20739 | 14892 ft | 396 kts | 45° |
| 2026-05-08 20:09 | 40.25907 | -80.17872 | 15527 ft | 402 kts | 46° |
| 2026-05-08 20:09 | 40.27610 | -80.14941 | 16192 ft | 406 kts | 46° |
| 2026-05-08 20:09 | 40.29354 | -80.12010 | 16845 ft | 411 kts | 45° |
| 2026-05-08 20:10 | 40.31138 | -80.09052 | 17527 ft | 416 kts | 45° |
| 2026-05-08 20:10 | 40.32934 | -80.06047 | 18231 ft | 421 kts | 45° |
| 2026-05-08 20:10 | 40.34575 | -80.02796 | 18710 ft | 440 kts | 60° |
| 2026-05-08 20:10 | 40.35278 | -79.98845 | 19372 ft | 454 kts | 84° |
| 2026-05-08 20:11 | 40.34953 | -79.94700 | 20003 ft | 461 kts | 101° |
| 2026-05-08 20:11 | 40.34160 | -79.90609 | 20636 ft | 466 kts | 106° |
| 2026-05-08 20:11 | 40.33328 | -79.86527 | 21232 ft | 472 kts | 104° |
| 2026-05-08 20:11 | 40.32696 | -79.82277 | 21977 ft | 468 kts | 96° |
| 2026-05-08 20:12 | 40.32561 | -79.78038 | 22904 ft | 464 kts | 86° |
| 2026-05-08 20:12 | 40.32742 | -79.73828 | 23811 ft | 461 kts | 83° |
| 2026-05-08 20:12 | 40.32929 | -79.69699 | 24605 ft | 461 kts | 85° |
| 2026-05-08 20:12 | 40.32879 | -79.65500 | 25436 ft | 460 kts | 91° |
| 2026-05-08 20:13 | 40.32695 | -79.61317 | 26288 ft | 458 kts | 91° |
| 2026-05-08 20:13 | 40.32619 | -79.57157 | 27159 ft | 456 kts | 88° |
| 2026-05-08 20:13 | 40.32659 | -79.53012 | 28062 ft | 454 kts | 87° |
| 2026-05-08 20:13 | 40.32646 | -79.48886 | 28990 ft | 452 kts | 89° |
| 2026-05-08 20:14 | 40.32551 | -79.44780 | 29948 ft | 449 kts | 90° |
| 2026-05-08 20:14 | 40.32476 | -79.40700 | 30763 ft | 446 kts | 88° |
| 2026-05-08 20:14 | 40.32451 | -79.36634 | 31382 ft | 450 kts | 88° |
| 2026-05-08 20:14 | 40.32423 | -79.32440 | 31388 ft | 473 kts | 89° |
| 2026-05-08 20:15 | 40.32356 | -79.28031 | 31314 ft | 496 kts | 89° |
| 2026-05-08 20:15 | 40.32275 | -79.23400 | 31108 ft | 518 kts | 89° |
| 2026-05-08 20:15 | 40.32212 | -79.18678 | 31001 ft | 519 kts | 89° |
| 2026-05-08 20:15 | 40.32157 | -79.13899 | 31000 ft | 532 kts | 89° |
| 2026-05-08 20:16 | 40.32088 | -79.08986 | 30981 ft | 548 kts | 89° |
| 2026-05-08 20:16 | 40.32005 | -79.03991 | 30978 ft | 563 kts | 89° |
| 2026-05-08 20:16 | 40.31921 | -78.98807 | 30982 ft | 576 kts | 89° |
| 2026-05-08 20:16 | 40.31842 | -78.93502 | 30978 ft | 588 kts | 89° |
| 2026-05-08 20:17 | 40.32515 | -78.82700 | 30954 ft | 602 kts | 74° |
| 2026-05-08 20:17 | 40.35232 | -78.72347 | 30977 ft | 603 kts | 61° |
| 2026-05-08 20:18 | 40.38452 | -78.62301 | 30977 ft | 601 kts | 62° |
| 2026-05-08 20:18 | 40.41169 | -78.53782 | 30976 ft | 606 kts | 62° |
| 2026-05-08 20:19 | 40.44406 | -78.43613 | 30980 ft | 609 kts | 62° |
| 2026-05-08 20:19 | 40.47664 | -78.33323 | 30974 ft | 611 kts | 62° |
| 2026-05-08 20:20 | 40.50925 | -78.22999 | 30971 ft | 612 kts | 62° |
| 2026-05-08 20:20 | 40.54163 | -78.12692 | 30969 ft | 607 kts | 62° |
| 2026-05-08 20:21 | 40.57383 | -78.02439 | 30974 ft | 607 kts | 62° |
| 2026-05-08 20:21 | 40.60760 | -77.92262 | 30974 ft | 608 kts | 60° |
| 2026-05-08 20:22 | 40.64087 | -77.82021 | 30977 ft | 609 kts | 61° |
| 2026-05-08 20:22 | 40.66741 | -77.71352 | 30940 ft | 614 kts | 68° |
| 2026-05-08 20:23 | 40.69102 | -77.60518 | 30945 ft | 615 kts | 71° |
| 2026-05-08 20:23 | 40.71368 | -77.49681 | 30950 ft | 612 kts | 69° |
| 2026-05-08 20:24 | 40.73730 | -77.38877 | 30952 ft | 613 kts | 70° |
| 2026-05-08 20:24 | 40.75963 | -77.28043 | 30959 ft | 612 kts | 69° |
| 2026-05-08 20:25 | 40.78283 | -77.17304 | 30971 ft | 613 kts | 70° |
| 2026-05-08 20:25 | 40.80529 | -77.06368 | 30967 ft | 613 kts | 70° |
| 2026-05-08 20:26 | 40.82813 | -76.95594 | 30968 ft | 613 kts | 70° |
| 2026-05-08 20:26 | 40.85037 | -76.84744 | 30952 ft | 611 kts | 70° |
| 2026-05-08 20:27 | 40.87289 | -76.73928 | 30955 ft | 605 kts | 70° |
| 2026-05-08 20:27 | 40.88360 | -76.68679 | 30943 ft | 588 kts | 70° |
| 2026-05-08 20:27 | 40.89426 | -76.63454 | 30920 ft | 585 kts | 70° |
| 2026-05-08 20:28 | 40.90485 | -76.58294 | 30009 ft | 588 kts | 70° |
| 2026-05-08 20:28 | 40.91538 | -76.53166 | 28376 ft | 568 kts | 70° |
| 2026-05-08 20:28 | 40.92561 | -76.48103 | 26471 ft | 563 kts | 71° |
| 2026-05-08 20:28 | 40.93526 | -76.43156 | 25028 ft | 547 kts | 72° |
| 2026-05-08 20:29 | 40.94398 | -76.38413 | 24330 ft | 517 kts | 72° |
| 2026-05-08 20:29 | 40.95213 | -76.33958 | 24193 ft | 479 kts | 71° |
| 2026-05-08 20:29 | 40.96014 | -76.29774 | 23883 ft | 469 kts | 71° |
| 2026-05-08 20:29 | 40.96854 | -76.25559 | 23404 ft | 466 kts | 70° |
| 2026-05-08 20:30 | 40.97707 | -76.21334 | 22773 ft | 491 kts | 70° |
| 2026-05-08 20:30 | 40.98619 | -76.16901 | 22653 ft | 510 kts | 70° |
| 2026-05-08 20:30 | 40.99523 | -76.12311 | 22910 ft | 517 kts | 71° |
| 2026-05-08 20:30 | 41.00459 | -76.07666 | 22766 ft | 522 kts | 69° |
| 2026-05-08 20:31 | 41.01523 | -76.03206 | 22941 ft | 502 kts | 67° |
| 2026-05-08 20:31 | 41.02599 | -75.98743 | 22959 ft | 515 kts | 69° |
| 2026-05-08 20:31 | 41.03475 | -75.94178 | 22973 ft | 521 kts | 73° |
| 2026-05-08 20:31 | 41.04271 | -75.89423 | 22956 ft | 523 kts | 73° |
| 2026-05-08 20:32 | 41.05166 | -75.84823 | 22955 ft | 522 kts | 70° |
| 2026-05-08 20:32 | 41.06175 | -75.80203 | 22960 ft | 523 kts | 69° |
| 2026-05-08 20:32 | 41.07117 | -75.75549 | 22968 ft | 522 kts | 72° |
| 2026-05-08 20:32 | 41.07969 | -75.70862 | 22960 ft | 523 kts | 72° |
| 2026-05-08 20:33 | 41.08853 | -75.66181 | 22985 ft | 523 kts | 71° |
| 2026-05-08 20:33 | 41.09801 | -75.61534 | 22952 ft | 522 kts | 70° |
| 2026-05-08 20:33 | 41.10736 | -75.56884 | 22952 ft | 523 kts | 71° |
| 2026-05-08 20:33 | 41.11619 | -75.52207 | 22950 ft | 523 kts | 72° |
| 2026-05-08 20:34 | 41.12500 | -75.47532 | 22937 ft | 523 kts | 71° |
| 2026-05-08 20:34 | 41.13382 | -75.42851 | 22935 ft | 524 kts | 73° |
| 2026-05-08 20:34 | 41.13770 | -75.33158 | 22940 ft | 530 kts | 93° |
| 2026-05-08 20:35 | 41.13176 | -75.28328 | 22939 ft | 532 kts | 103° |
| 2026-05-08 20:35 | 41.12064 | -75.23653 | 22935 ft | 532 kts | 112° |
| 2026-05-08 20:35 | 41.10567 | -75.19174 | 22958 ft | 532 kts | 116° |
| 2026-05-08 20:35 | 41.09052 | -75.14710 | 22957 ft | 531 kts | 115° |
| 2026-05-08 20:36 | 41.07549 | -75.10239 | 22954 ft | 530 kts | 115° |
| 2026-05-08 20:36 | 41.06035 | -75.05774 | 22967 ft | 531 kts | 116° |
| 2026-05-08 20:36 | 41.04508 | -75.01322 | 22953 ft | 531 kts | 116° |
| 2026-05-08 20:36 | 41.02984 | -74.96870 | 22953 ft | 532 kts | 116° |
| 2026-05-08 20:37 | 41.01466 | -74.92410 | 22954 ft | 531 kts | 116° |
| 2026-05-08 20:37 | 41.00062 | -74.87895 | 22934 ft | 532 kts | 109° |
| 2026-05-08 20:37 | 40.99157 | -74.83153 | 22943 ft | 532 kts | 100° |
| 2026-05-08 20:37 | 40.98595 | -74.78326 | 22947 ft | 531 kts | 97° |
| 2026-05-08 20:38 | 40.98044 | -74.73556 | 22953 ft | 531 kts | 98° |
| 2026-05-08 20:38 | 40.97460 | -74.68662 | 22964 ft | 531 kts | 98° |
| 2026-05-08 20:38 | 40.96887 | -74.63838 | 22959 ft | 532 kts | 98° |
| 2026-05-08 20:38 | 40.96323 | -74.59003 | 22962 ft | 532 kts | 98° |
| 2026-05-08 20:39 | 40.95756 | -74.54176 | 22955 ft | 532 kts | 98° |
| 2026-05-08 20:39 | 40.95186 | -74.49409 | 22959 ft | 531 kts | 98° |
| 2026-05-08 20:39 | 40.94605 | -74.44580 | 22959 ft | 531 kts | 98° |
| 2026-05-08 20:39 | 40.94036 | -74.39826 | 22665 ft | 509 kts | 98° |
| 2026-05-08 20:40 | 40.93496 | -74.35334 | 22082 ft | 483 kts | 98° |
| 2026-05-08 20:40 | 40.92976 | -74.31007 | 21494 ft | 471 kts | 98° |
| 2026-05-08 20:40 | 40.92461 | -74.26748 | 20921 ft | 473 kts | 98° |
| 2026-05-08 20:40 | 40.91944 | -74.22491 | 20354 ft | 465 kts | 97° |
| 2026-05-08 20:41 | 40.91431 | -74.18285 | 19792 ft | 462 kts | 97° |
| 2026-05-08 20:41 | 40.90601 | -74.14217 | 19171 ft | 458 kts | 114° |
| 2026-05-08 20:41 | 40.88724 | -74.10780 | 18920 ft | 471 kts | 140° |
| 2026-05-08 20:41 | 40.86087 | -74.08153 | 18966 ft | 479 kts | 152° |
| 2026-05-08 20:42 | 40.83216 | -74.05883 | 18972 ft | 481 kts | 155° |
| 2026-05-08 20:42 | 40.80311 | -74.03755 | 18958 ft | 463 kts | 156° |
| 2026-05-08 20:42 | 40.77593 | -74.01786 | 18371 ft | 434 kts | 157° |
| 2026-05-08 20:42 | 40.74957 | -73.99894 | 16985 ft | 429 kts | 157° |
| 2026-05-08 20:43 | 40.72364 | -73.98053 | 15892 ft | 416 kts | 157° |
| 2026-05-08 20:43 | 40.69874 | -73.96304 | 14807 ft | 406 kts | 157° |
| 2026-05-08 20:43 | 40.67411 | -73.94594 | 13727 ft | 395 kts | 157° |
| 2026-05-08 20:43 | 40.65002 | -73.92941 | 12554 ft | 385 kts | 157° |
| 2026-05-08 20:44 | 40.62669 | -73.91339 | 11796 ft | 368 kts | 157° |
| 2026-05-08 20:44 | 40.60489 | -73.89826 | 11492 ft | 341 kts | 157° |
| 2026-05-08 20:44 | 40.58475 | -73.88401 | 11292 ft | 317 kts | 157° |
| 2026-05-08 20:44 | 40.56557 | -73.87030 | 10614 ft | 312 kts | 157° |
| 2026-05-08 20:45 | 40.54661 | -73.85674 | 9965 ft | 308 kts | 157° |
| 2026-05-08 20:45 | 40.53425 | -73.84787 | 9569 ft | 303 kts | 157° |
| 2026-05-08 20:45 | 40.50969 | -73.83024 | 8632 ft | 298 kts | 157° |
| 2026-05-08 20:45 | 40.49148 | -73.81716 | 8023 ft | 295 kts | 156° |
| 2026-05-08 20:46 | 40.47695 | -73.79873 | 7930 ft | 297 kts | 127° |
| 2026-05-08 20:46 | 40.46729 | -73.77416 | 8013 ft | 306 kts | 118° |
| 2026-05-08 20:46 | 40.45838 | -73.74872 | 8011 ft | 307 kts | 117° |
| 2026-05-08 20:46 | 40.44949 | -73.72314 | 8008 ft | 308 kts | 117° |
| 2026-05-08 20:47 | 40.44061 | -73.69758 | 7989 ft | 306 kts | 117° |
| 2026-05-08 20:47 | 40.43189 | -73.67244 | 7332 ft | 307 kts | 117° |
| 2026-05-08 20:47 | 40.42296 | -73.64667 | 6724 ft | 309 kts | 117° |
| 2026-05-08 20:47 | 40.41408 | -73.62122 | 6089 ft | 304 kts | 117° |
| 2026-05-08 20:48 | 40.40561 | -73.59618 | 5413 ft | 298 kts | 111° |
| 2026-05-08 20:48 | 40.40433 | -73.56975 | 4677 ft | 296 kts | 77° |
| 2026-05-08 20:48 | 40.41367 | -73.54682 | 4027 ft | 281 kts | 43° |
| 2026-05-08 20:48 | 40.42879 | -73.53169 | 3596 ft | 268 kts | 28° |
| 2026-05-08 20:49 | 40.44453 | -73.51860 | 3292 ft | 268 kts | 27° |
| 2026-05-08 20:49 | 40.46029 | -73.50569 | 3028 ft | 265 kts | 27° |
| 2026-05-08 20:49 | 40.47698 | -73.49700 | 2973 ft | 257 kts | 4° |
| 2026-05-08 20:49 | 40.49413 | -73.49960 | 2960 ft | 240 kts | 333° |
| 2026-05-08 20:50 | 40.50692 | -73.51091 | 2990 ft | 209 kts | 314° |
| 2026-05-08 20:50 | 40.51586 | -73.52515 | 2999 ft | 200 kts | 301° |
| 2026-05-08 20:50 | 40.52316 | -73.54065 | 3008 ft | 199 kts | 299° |
| 2026-05-08 20:50 | 40.53028 | -73.55631 | 3009 ft | 200 kts | 298° |
| 2026-05-08 20:51 | 40.53740 | -73.57198 | 3008 ft | 200 kts | 298° |
| 2026-05-08 20:51 | 40.54449 | -73.58763 | 3011 ft | 199 kts | 298° |
| 2026-05-08 20:51 | 40.55160 | -73.60331 | 3008 ft | 199 kts | 298° |
| 2026-05-08 20:51 | 40.55872 | -73.61901 | 2885 ft | 201 kts | 298° |
| 2026-05-08 20:52 | 40.56567 | -73.63436 | 2622 ft | 195 kts | 299° |
| 2026-05-08 20:52 | 40.57266 | -73.64977 | 2351 ft | 192 kts | 299° |
| 2026-05-08 20:52 | 40.57899 | -73.66370 | 2098 ft | 169 kts | 298° |
| 2026-05-08 20:52 | 40.58462 | -73.67607 | 1868 ft | 145 kts | 298° |
| 2026-05-08 20:53 | 40.58942 | -73.68658 | 1676 ft | 124 kts | 297° |
| 2026-05-08 20:53 | 40.59374 | -73.69610 | 1529 ft | 120 kts | 297° |
| 2026-05-08 20:53 | 40.59800 | -73.70552 | 1380 ft | 120 kts | 297° |
| 2026-05-08 20:53 | 40.60227 | -73.71496 | 1222 ft | 120 kts | 297° |
| 2026-05-08 20:54 | 40.60654 | -73.72440 | 1067 ft | 121 kts | 298° |
| 2026-05-08 20:54 | 40.61065 | -73.73345 | 900 ft | 109 kts | 298° |
| 2026-05-08 20:54 | 40.61433 | -73.74166 | 753 ft | 100 kts | 299° |
| 2026-05-08 20:54 | 40.61782 | -73.74932 | 606 ft | 95 kts | 300° |
| 2026-05-08 20:55 | 40.62111 | -73.75660 | 535 ft | 95 kts | 299° |
| 2026-05-08 20:55 | 40.62457 | -73.76427 | 426 ft | 97 kts | 298° |
| 2026-05-08 20:55 | 40.62795 | -73.77181 | 271 ft | 96 kts | 298° |
| 2026-05-08 20:55 | 40.63137 | -73.77934 | 120 ft | 95 kts | 299° |
| 2026-05-08 20:56 | 40.63477 | -73.78671 | 38 ft | 93 kts | 299° |
| 2026-05-08 20:56 | 40.63817 | -73.79389 | 17 ft | 92 kts | 296° |
| 2026-05-08 20:56 | 40.64089 | -73.80026 | 21 ft | 66 kts | 301° |
| 2026-05-08 20:56 | 40.64268 | -73.80418 | 19 ft | 24 kts | 312° |
| 2026-05-08 20:57 | 40.64354 | -73.80460 | 19 ft | 5 kts | 359° |
| 2026-05-08 20:57 | 40.64366 | -73.80457 | 19 ft | 1 kts | 11° |
| 2026-05-08 20:57 | 40.64383 | -73.80453 | 18 ft | 4 kts | 13° |
| 2026-05-08 20:57 | 40.64413 | -73.80440 | 17 ft | 6 kts | 20° |
| 2026-05-08 20:58 | 40.64451 | -73.80447 | 16 ft | 6 kts | 313° |
| 2026-05-08 20:58 | 40.64476 | -73.80491 | 16 ft | 6 kts | 307° |
| 2026-05-08 20:58 | 40.64496 | -73.80530 | 16 ft | 4 kts | 302° |
| 2026-05-08 20:58 | 40.64535 | -73.80614 | 19 ft | 15 kts | 298° |
| 2026-05-08 20:59 | 40.64581 | -73.80721 | 21 ft | 13 kts | 300° |
| 2026-05-08 20:59 | 40.64639 | -73.80853 | 22 ft | 19 kts | 300° |
| 2026-05-08 20:59 | 40.64711 | -73.81013 | 24 ft | 22 kts | 301° |
| 2026-05-08 20:59 | 40.64792 | -73.81157 | 22 ft | 15 kts | 346° |
| 2026-05-08 21:00 | 40.64880 | -73.81171 | 21 ft | 12 kts | 311° |
| 2026-05-08 21:00 | 40.64936 | -73.81210 | 20 ft | 9 kts | 31° |
| 2026-05-08 21:00 | 40.64974 | -73.81146 | 18 ft | 7 kts | 84° |
| 2026-05-08 21:00 | 40.64958 | -73.81110 | 21 ft | 4 kts | 121° |
| 2026-05-08 21:01 | 40.64941 | -73.81074 | 19 ft | 8 kts | 121° |
| 2026-05-08 21:01 | 40.64920 | -73.81014 | 19 ft | 6 kts | 102° |
| 2026-05-08 21:01 | 40.64918 | -73.80980 | 18 ft | 1 kts | 51° |
| 2026-05-08 21:01 | 40.64925 | -73.80985 | 18 ft | 0 kts | 335° |